Time;durP1;ratioP1;P1;durP2;ratioP2;P2;SDS_P1;SDS_P2;PMS_P1;PMS_P2;Temp;Humidity;BMP_temperature;BMP_pressure;BME280_temperature;BME280_humidity;BME280_pressure;Samples;Min_cycle;Max_cycle;Signal;HPM_P1;HPM_P2
2022/04/19 00:00:07;;;;;;;;;11.33;10.00;;;;;14.03;100.00;101103.75;6373415;22;45279;-95
2022/04/19 00:02:32;;;;;;;;;11.33;8.67;;;;;14.05;100.00;101104.69;6371900;22;45599;-95
2022/04/19 00:04:59;;;;;;;;;7.00;6.00;;;;;14.02;100.00;101101.06;6372438;22;46933;-96
2022/04/19 00:07:25;;;;;;;;;7.00;6.00;;;;;13.98;100.00;101099.13;6372926;22;45305;-96
2022/04/19 00:09:50;;;;;;;;;8.67;7.33;;;;;13.99;100.00;101099.22;6372237;22;45464;-95
2022/04/19 00:12:16;;;;;;;;;9.67;7.33;;;;;14.05;100.00;101115.25;6372286;22;45192;-96
2022/04/19 00:14:41;;;;;;;;;12.00;9.67;;;;;13.98;100.00;101096.50;6372765;22;47840;-96
2022/04/19 00:17:07;;;;;;;;;9.33;9.33;;;;;13.94;100.00;101100.78;6371814;22;45513;-96
2022/04/19 00:19:32;;;;;;;;;11.67;8.33;;;;;13.94;100.00;101103.41;6372722;22;45236;-96
2022/04/19 00:21:57;;;;;;;;;14.33;10.33;;;;;13.92;100.00;101105.97;6372838;22;45936;-95
2022/04/19 00:24:23;;;;;;;;;9.33;8.00;;;;;13.90;100.00;101102.41;6373257;22;48507;-96
2022/04/19 00:26:48;;;;;;;;;7.67;5.00;;;;;13.87;100.00;101102.28;6371835;22;45857;-93
2022/04/19 00:29:13;;;;;;;;;9.67;6.67;;;;;13.87;100.00;101110.19;6373232;22;45665;-95
2022/04/19 00:31:39;;;;;;;;;9.00;5.00;;;;;13.77;100.00;101093.13;6372989;22;45346;-96
2022/04/19 00:34:04;;;;;;;;;9.67;5.33;;;;;13.71;100.00;101088.50;6371670;22;46723;-94
2022/04/19 00:36:29;;;;;;;;;5.67;5.67;;;;;13.71;100.00;101083.22;6372865;22;45414;-96
2022/04/19 00:38:55;;;;;;;;;6.67;6.00;;;;;13.75;100.00;101100.09;6372663;22;45450;-96
2022/04/19 00:41:20;;;;;;;;;5.33;4.33;;;;;13.70;100.00;101092.00;6372530;22;45382;-96
2022/04/19 00:43:45;;;;;;;;;14.25;11.00;;;;;13.54;100.00;101077.28;6372125;22;47982;-96
2022/04/19 00:46:11;;;;;;;;;10.00;5.33;;;;;13.60;100.00;101090.75;6371824;22;45690;-95
2022/04/19 00:48:36;;;;;;;;;7.33;6.00;;;;;13.59;100.00;101095.94;6372185;22;45384;-95
2022/04/19 00:51:02;;;;;;;;;6.67;6.33;;;;;13.54;100.00;101090.47;6399468;22;45409;-96
2022/04/19 00:53:29;;;;;;;;;10.33;7.33;;;;;13.49;100.00;101089.38;6371803;22;48446;-96
2022/04/19 00:55:54;;;;;;;;;9.33;9.00;;;;;13.44;100.00;101075.13;6372149;22;45917;-94
2022/04/19 00:58:20;;;;;;;;;6.67;6.00;;;;;13.37;100.00;101079.28;6372125;22;45432;-95
2022/04/19 01:00:45;;;;;;;;;7.33;7.33;;;;;13.34;100.00;101082.69;6372346;22;45267;-94
2022/04/19 01:03:11;;;;;;;;;9.00;7.00;;;;;13.23;100.00;101069.06;6371380;22;48462;-95
2022/04/19 01:05:37;;;;;;;;;9.00;8.00;;;;;13.18;100.00;101068.91;6376145;22;45229;-96
2022/04/19 01:08:02;;;;;;;;;6.67;5.67;;;;;13.22;100.00;101076.94;6371929;22;45302;-96
2022/04/19 01:10:29;;;;;;;;;5.75;5.00;;;;;13.21;100.00;101080.41;6371772;22;45473;-96
2022/04/19 01:15:41;;;;;;;;;4.00;3.00;;;;;13.16;100.00;101090.75;6401937;22;45492;-94
2022/04/19 02:19:01;;;;;;;;;1.00;1.00;;;;;11.96;100.00;101059.44;6370043;22;45535;-96
2022/04/19 02:21:26;;;;;;;;;4.00;3.33;;;;;11.99;100.00;101069.19;6374057;22;46752;-96
2022/04/19 02:23:52;;;;;;;;;3.67;3.00;;;;;12.05;100.00;101079.09;6378721;22;45659;-96
2022/04/19 02:26:20;;;;;;;;;4.00;4.00;;;;;11.90;100.00;101058.28;6374966;22;45249;-95
2022/04/19 02:28:45;;;;;;;;;4.33;2.67;;;;;11.85;100.00;101053.69;6376355;22;45334;-96
2022/04/19 02:31:11;;;;;;;;;2.33;2.00;;;;;11.94;100.00;101065.47;6375878;22;47367;-96
2022/04/19 02:33:37;;;;;;;;;9.00;3.67;;;;;11.83;100.00;101049.19;6380923;22;45414;-96
2022/04/19 02:36:03;;;;;;;;;3.00;2.67;;;;;11.86;100.00;101059.84;6378008;22;45357;-96
2022/04/19 02:38:35;;;;;;;;;3.33;3.33;;;;;11.79;100.00;101047.25;6383935;22;45325;-96
2022/04/19 02:41:01;;;;;;;;;4.00;4.00;;;;;11.81;100.00;101069.25;6379438;22;47986;-96
2022/04/19 02:43:26;;;;;;;;;2.00;2.00;;;;;11.68;100.00;101041.50;6378366;22;45236;-96
2022/04/19 02:45:54;;;;;;;;;3.00;3.00;;;;;11.70;100.00;101051.25;6377863;22;45449;-95
2022/04/19 02:48:21;;;;;;;;;1.33;1.00;;;;;11.69;100.00;101056.47;6376692;22;45363;-96
2022/04/19 02:50:48;;;;;;;;;2.00;2.00;;;;;11.69;100.00;101054.75;6379517;22;47446;-96
2022/04/19 02:53:18;;;;;;;;;3.00;2.67;;;;;11.63;100.00;101049.19;6382512;22;45306;-96
2022/04/19 02:55:43;;;;;;;;;4.00;3.33;;;;;11.60;100.00;101046.41;6379276;22;45349;-96
2022/04/19 02:58:08;;;;;;;;;4.00;4.00;;;;;11.57;100.00;101039.28;6388115;22;44801;-96
2022/04/19 03:00:34;;;;;;;;;2.00;2.00;;;;;11.57;100.00;101044.53;6400884;22;47188;-96
2022/04/19 03:02:59;;;;;;;;;2.33;2.33;;;;;11.55;100.00;101042.66;6399993;22;44793;-96
2022/04/19 03:05:25;;;;;;;;;3.33;3.33;;;;;11.46;100.00;101024.75;6399063;22;44825;-96
2022/04/19 03:07:50;;;;;;;;;3.00;3.00;;;;;11.46;100.00;101025.66;6388167;22;44906;-96
2022/04/19 03:10:16;;;;;;;;;6.67;3.00;;;;;11.43;100.00;101016.72;6378283;22;46956;-96
2022/04/19 03:12:45;;;;;;;;;2.33;2.33;;;;;11.49;100.00;101030.16;6381976;22;45272;-96
2022/04/19 03:15:15;;;;;;;;;3.00;3.00;;;;;11.35;100.00;101009.38;6379821;22;45375;-96
2022/04/19 03:17:41;;;;;;;;;3.67;2.67;;;;;11.40;100.00;101017.47;6387725;22;45402;-96
2022/04/19 03:20:08;;;;;;;;;2.33;2.33;;;;;11.47;100.00;101032.69;6383720;22;47130;-96
2022/04/19 03:28:06;;;;;;;;;3.00;3.00;;;;;11.26;100.00;101006.34;6414069;22;45350;-96
2022/04/19 03:30:32;;;;;;;;;2.67;2.67;;;;;11.25;100.00;101010.69;6382478;22;45315;-96
2022/04/19 03:32:59;;;;;;;;;3.33;2.00;;;;;11.21;100.00;100997.34;6377390;22;45366;-96
2022/04/19 03:35:25;;;;;;;;;2.67;2.67;;;;;11.34;100.00;101020.72;6376819;22;45322;-96
2022/04/19 03:37:53;;;;;;;;;3.25;2.50;;;;;11.39;100.00;101023.59;6379808;22;45542;-96
2022/04/19 03:40:19;;;;;;;;;7.00;4.00;;;;;11.34;100.00;101011.97;6382389;22;48426;-96
2022/04/19 03:42:47;;;;;;;;;4.00;4.00;;;;;11.27;100.00;101003.78;6379835;22;45797;-96
2022/04/19 03:45:12;;;;;;;;;4.33;3.00;;;;;11.26;100.00;101001.09;6378257;22;45285;-96
2022/04/19 03:48:24;;;;;;;;;2.67;2.00;;;;;11.33;100.00;101011.06;6409490;22;45428;-96
2022/04/19 04:11:51;;;;;;;;;3.00;2.67;;;;;11.13;100.00;101007.50;6278166;22;46158;-95
2022/04/19 04:14:17;;;;;;;;;4.00;2.33;;;;;11.04;100.00;100989.56;6376871;22;45294;-95
2022/04/19 04:16:43;;;;;;;;;2.00;2.00;;;;;11.02;100.00;100981.63;6381049;22;45403;-96
2022/04/19 04:19:08;;;;;;;;;2.67;2.00;;;;;11.13;100.00;100989.09;6376205;22;45293;-96
2022/04/19 04:21:35;;;;;;;;;2.67;2.67;;;;;11.21;100.00;100997.34;6376832;22;48296;-96
2022/04/19 04:24:00;;;;;;;;;3.33;2.00;;;;;11.15;100.00;100984.81;6405498;22;45218;-95
2022/04/19 04:26:26;;;;;;;;;3.00;3.00;;;;;11.17;100.00;100988.41;6402876;22;45453;-96
2022/04/19 04:28:58;;;;;;;;;1.33;1.33;;;;;11.10;100.00;100981.97;6353135;22;44872;-96
2022/04/19 04:31:23;;;;;;;;;3.00;3.00;;;;;11.15;100.00;100990.06;6379734;22;47388;-96
2022/04/19 04:33:48;;;;;;;;;3.00;2.33;;;;;11.23;100.00;101007.09;6375471;22;45266;-96
2022/04/19 04:36:30;;;;;;;;;3.00;2.00;;;;;11.07;100.00;100984.44;6377309;22;45248;-96
2022/04/19 04:38:59;;;;;;;;;5.00;2.00;;;;;11.05;100.00;100988.75;6411891;22;44920;-96
2022/04/19 04:41:28;;;;;;;;;3.00;3.00;;;;;11.08;100.00;101003.75;6420327;22;45596;-96
2022/04/19 04:44:00;;;;;;;;;4.00;2.33;;;;;11.01;100.00;100992.94;6380921;22;45419;-96
2022/04/19 04:52:02;;;;;;;;;4.00;2.00;;;;;11.03;100.00;101009.66;6409370;22;45031;-96
2022/04/19 04:54:27;;;;;;;;;1.00;1.00;;;;;11.01;100.00;101010.41;6396634;22;44655;-96
2022/04/19 04:56:53;;;;;;;;;2.00;2.00;;;;;10.87;100.00;100988.75;6397699;22;45184;-96
2022/04/19 04:59:19;;;;;;;;;3.00;3.00;;;;;10.87;100.00;101000.16;6400434;22;44814;-96
2022/04/19 05:01:44;;;;;;;;;3.00;2.00;;;;;10.97;100.00;101011.09;6396001;22;46871;-96
2022/04/19 05:04:10;;;;;;;;;4.00;2.33;;;;;10.95;100.00;101011.03;6388440;22;44710;-96
2022/04/19 05:06:37;;;;;;;;;3.33;3.00;;;;;10.87;100.00;100994.91;6425505;22;45542;-96
2022/04/19 05:09:02;;;;;;;;;1.67;1.67;;;;;10.95;100.00;101006.66;6395477;22;44855;-95
2022/04/19 05:11:29;;;;;;;;;1.67;1.33;;;;;10.87;100.00;100981.78;6360863;22;46879;-96
2022/04/19 05:13:58;;;;;;;;;4.00;2.00;;;;;10.90;100.00;100981.91;6364893;22;44783;-96
2022/04/19 05:39:40;;;;;;;;;2.33;2.33;;;;;11.23;100.00;100990.44;6315410;22;46939;-95
2022/04/19 05:42:05;;;;;;;;;4.00;4.00;;;;;11.32;100.00;100998.72;6376071;22;48195;-95
2022/04/19 05:44:31;;;;;;;;;3.00;2.00;;;;;11.25;100.00;100988.75;6377005;22;45245;-96
2022/04/19 05:47:00;;;;;;;;;3.67;3.67;;;;;11.41;100.00;100993.00;6391213;22;44621;-96
2022/04/19 05:49:25;;;;;;;;;2.00;2.00;;;;;11.44;100.00;100994.88;6409000;22;45396;-96
2022/04/19 05:51:51;;;;;;;;;3.00;2.67;;;;;11.39;100.00;100974.53;6384855;22;46981;-96
2022/04/19 05:54:16;;;;;;;;;2.00;2.00;;;;;11.55;100.00;100985.72;6383129;22;45390;-95
2022/04/19 05:56:42;;;;;;;;;3.33;3.33;;;;;11.65;100.00;100994.94;6381975;22;45530;-96
2022/04/19 05:59:07;;;;;;;;;3.67;3.67;;;;;11.64;100.00;100976.47;6380955;22;45298;-96
2022/04/19 06:07:01;;;;;;;;;2.00;2.00;;;;;11.92;100.00;100990.84;6406067;22;45327;-95
2022/04/19 06:09:29;;;;;;;;;2.67;2.67;;;;;11.96;100.00;100983.13;6406524;22;45400;-96
2022/04/19 06:11:54;;;;;;;;;2.67;2.33;;;;;11.99;100.00;100976.22;6354294;22;47219;-96
2022/04/19 06:14:20;;;;;;;;;6.33;4.00;;;;;12.14;100.00;100997.06;6379382;22;45316;-96
2022/04/19 06:16:46;;;;;;;;;4.00;4.00;;;;;12.15;100.00;100990.97;6380367;22;44620;-96
2022/04/19 06:19:14;;;;;;;;;4.67;4.67;;;;;12.17;100.00;100981.41;6410991;22;45465;-96
2022/04/19 06:21:41;;;;;;;;;7.33;4.33;;;;;12.36;100.00;101013.78;6412515;22;45563;-96
2022/04/19 06:24:08;;;;;;;;;6.00;4.33;;;;;12.37;100.00;101005.94;6378898;22;45387;-93
2022/04/19 06:26:33;;;;;;;;;10.00;5.00;;;;;12.43;100.00;101000.03;6375196;22;45283;-94
2022/04/19 06:28:58;;;;;;;;;5.33;3.33;;;;;12.52;100.00;101015.31;6371355;22;45412;-93
2022/04/19 06:31:24;;;;;;;;;3.67;3.67;;;;;12.51;100.00;101017.06;6368229;22;46979;-86
2022/04/19 06:33:49;;;;;;;;;5.67;5.67;;;;;12.46;100.00;101007.16;6396927;22;45284;-85
2022/04/19 06:36:14;;;;;;;;;4.00;4.00;;;;;12.48;100.00;101013.38;6396763;22;52866;-88
2022/04/19 06:38:40;;;;;;;;;7.00;7.00;;;;;12.52;100.00;101010.06;6396255;22;45712;-85
2022/04/19 06:41:06;;;;;;;;;8.25;7.75;;;;;12.54;100.00;101008.38;6405941;22;45433;-89
2022/04/19 06:43:32;;;;;;;;;11.75;8.00;;;;;12.62;100.00;101014.88;6368470;22;45224;-90
2022/04/19 06:45:57;;;;;;;;;13.00;8.75;;;;;12.60;100.00;101010.38;6398285;22;45523;-87
2022/04/19 06:48:22;;;;;;;;;8.67;7.33;;;;;12.57;100.00;100999.72;6398742;22;45253;-90
2022/04/19 06:50:48;;;;;;;;;10.00;8.75;;;;;12.65;100.00;101003.56;6386981;22;47247;-90
2022/04/19 06:53:13;;;;;;;;;8.33;7.00;;;;;12.76;100.00;100998.72;6416847;22;45205;-88
2022/04/19 06:55:38;;;;;;;;;9.67;7.00;;;;;12.86;100.00;101002.63;6413614;22;45154;-88
2022/04/19 06:58:04;;;;;;;;;7.33;5.00;;;;;12.95;100.00;101000.38;6370859;22;46672;-89
2022/04/19 07:00:29;;;;;;;;;10.00;9.00;;;;;13.07;100.00;100999.03;6399297;22;46390;-85
2022/04/19 07:02:55;;;;;;;;;9.33;6.33;;;;;13.19;100.00;101009.19;6368969;22;45432;-87
2022/04/19 07:05:20;;;;;;;;;11.00;6.67;;;;;13.29;100.00;101013.97;6397631;22;45342;-89
2022/04/19 07:07:46;;;;;;;;;7.00;7.00;;;;;13.35;100.00;101013.28;6366822;22;59506;-90
2022/04/19 07:10:12;;;;;;;;;11.00;9.33;;;;;13.46;100.00;101010.16;6369774;22;47017;-91
2022/04/19 07:12:39;;;;;;;;;10.00;5.00;;;;;13.54;100.00;101007.81;6368864;22;45772;-92
2022/04/19 07:15:04;;;;;;;;;10.33;7.67;;;;;13.62;100.00;101015.22;6398299;22;45328;-89
2022/04/19 07:17:30;;;;;;;;;5.00;4.67;;;;;13.72;100.00;101018.19;6367329;22;45546;-89
2022/04/19 07:28:11;;;;;;;;;7.33;5.33;;;;;13.97;100.00;101021.69;6398244;22;45346;-88
2022/04/19 07:30:37;;;;;;;;;6.67;5.67;;;;;14.00;100.00;101026.19;6401809;22;45226;-92
2022/04/19 07:33:04;;;;;;;;;8.33;6.33;;;;;14.10;100.00;101025.69;6396001;22;45284;-89
2022/04/19 07:35:29;;;;;;;;;14.33;12.67;;;;;14.15;100.00;101028.47;6366525;22;45454;-90
2022/04/19 07:37:54;;;;;;;;;5.00;5.00;;;;;14.19;100.00;101026.00;6366991;22;45304;-88
2022/04/19 07:40:20;;;;;;;;;12.67;6.00;;;;;14.23;100.00;101026.09;6397170;22;54656;-90
2022/04/19 07:42:45;;;;;;;;;8.67;6.33;;;;;14.27;100.00;101035.94;6367733;22;45336;-90
2022/04/19 07:45:11;;;;;;;;;9.33;7.33;;;;;14.30;100.00;101025.50;6396513;22;45620;-90
2022/04/19 07:47:37;;;;;;;;;6.67;4.33;;;;;14.34;100.00;101030.03;6394861;22;45509;-90
2022/04/19 07:50:02;;;;;;;;;11.67;6.67;;;;;14.40;100.00;101024.06;6396064;22;46119;-88
2022/04/19 07:52:27;;;;;;;;;7.67;6.33;;;;;14.48;100.00;101026.97;6368245;22;45263;-89
2022/04/19 07:54:53;;;;;;;;;9.33;8.00;;;;;14.56;100.00;101036.03;6397067;22;45285;-87
2022/04/19 07:57:20;;;;;;;;;10.33;8.67;;;;;14.60;100.00;101034.38;6422759;22;51065;-90
2022/04/19 07:59:45;;;;;;;;;9.00;6.33;;;;;14.61;100.00;101029.16;6381981;22;47255;-91
2022/04/19 08:02:10;;;;;;;;;7.67;7.33;;;;;14.68;100.00;101026.72;6379450;22;45283;-94
2022/04/19 08:04:36;;;;;;;;;8.00;8.00;;;;;14.77;100.00;101029.66;6379137;22;45515;-90
2022/04/19 08:07:03;;;;;;;;;8.67;8.00;;;;;14.89;100.00;101033.59;6350581;22;45468;-91
2022/04/19 08:09:28;;;;;;;;;13.67;9.00;;;;;14.98;100.00;101044.44;6375023;22;47099;-93
2022/04/19 08:11:53;;;;;;;;;12.00;7.33;;;;;15.07;100.00;101036.81;6406184;22;49395;-92
2022/04/19 08:14:19;;;;;;;;;6.00;6.00;;;;;15.18;100.00;101034.50;6397859;22;50725;-91
2022/04/19 08:16:45;;;;;;;;;5.67;5.33;;;;;15.30;100.00;101034.00;6369147;22;45351;-93
2022/04/19 08:19:11;;;;;;;;;7.00;4.67;;;;;15.38;100.00;101041.25;6369070;22;48036;-95
2022/04/19 08:21:36;;;;;;;;;6.67;6.67;;;;;15.44;100.00;101032.59;6368808;22;45371;-90
2022/04/19 08:24:05;;;;;;;;;9.33;5.67;;;;;15.52;100.00;101045.19;6369344;22;45395;-96
2022/04/19 08:26:30;;;;;;;;;9.33;7.33;;;;;15.60;100.00;101039.25;6395248;22;45290;-93
2022/04/19 08:28:56;;;;;;;;;8.67;8.67;;;;;15.71;100.00;101043.09;6397135;22;53577;-90
2022/04/19 08:31:21;;;;;;;;;5.33;5.33;;;;;15.79;100.00;101040.69;6397574;22;45203;-87
2022/04/19 08:33:46;;;;;;;;;6.67;5.67;;;;;15.94;100.00;101044.59;6365899;22;45769;-88
2022/04/19 08:36:11;;;;;;;;;10.33;6.67;;;;;16.06;100.00;101041.41;6367877;22;45581;-88
2022/04/19 08:38:37;;;;;;;;;9.00;6.67;;;;;16.19;100.00;101030.31;6397008;22;45544;-92
2022/04/19 08:41:03;;;;;;;;;9.67;8.33;;;;;16.33;100.00;101040.38;6397795;22;45280;-93
2022/04/19 08:43:29;;;;;;;;;12.33;8.33;;;;;16.48;100.00;101047.84;6369418;22;45381;-92
2022/04/19 08:45:54;;;;;;;;;8.33;6.33;;;;;16.60;100.00;101051.63;6368386;22;45443;-92
2022/04/19 08:48:24;;;;;;;;;11.00;7.00;;;;;16.71;100.00;101046.59;6398393;22;49674;-93
2022/04/19 08:50:53;;;;;;;;;13.67;8.33;;;;;16.82;100.00;101061.03;6399314;22;45291;-94
2022/04/19 08:58:46;;;;;;;;;6.67;6.33;;;;;17.08;100.00;101052.81;6400964;22;45679;-96
2022/04/19 09:01:11;;;;;;;;;8.33;5.33;;;;;17.12;100.00;101051.13;6399464;22;58601;-93
2022/04/19 09:03:38;;;;;;;;;9.67;7.33;;;;;17.18;100.00;101042.44;6373509;22;45136;-95
2022/04/19 09:06:03;;;;;;;;;8.33;8.33;;;;;17.26;100.00;101046.16;6370100;22;45399;-86
2022/04/19 09:08:29;;;;;;;;;5.67;5.67;;;;;17.34;100.00;101046.34;6366826;22;46322;-86
2022/04/19 09:11:05;;;;;;;;;5.00;4.33;;;;;17.42;100.00;101055.34;6367232;22;45944;-86
2022/04/19 09:13:30;;;;;;;;;7.33;7.33;;;;;17.46;100.00;101050.09;6366263;22;45450;-86
2022/04/19 09:16:03;;;;;;;;;5.67;5.00;;;;;17.55;100.00;101041.47;6397295;22;45530;-88
2022/04/19 09:18:29;;;;;;;;;9.33;5.67;;;;;17.64;100.00;101049.59;6395266;22;47083;-87
2022/04/19 09:20:59;;;;;;;;;7.33;6.67;;;;;17.74;100.00;101053.34;6357977;22;45420;-87
2022/04/19 09:23:25;;;;;;;;;7.00;7.00;;;;;17.84;100.00;101044.69;6394462;22;45308;-88
2022/04/19 09:25:56;;;;;;;;;7.67;4.67;;;;;17.96;100.00;101035.19;6396623;22;45397;-87
2022/04/19 09:28:23;;;;;;;;;10.00;7.00;;;;;18.14;100.00;101044.38;6366987;22;48390;-90
2022/04/19 09:30:56;;;;;;;;;7.00;6.00;;;;;18.31;100.00;101040.31;6366111;22;45450;-88
2022/04/19 09:33:23;;;;;;;;;8.00;8.00;;;;;18.48;100.00;101045.00;6395312;22;45340;-89
2022/04/19 09:35:54;;;;;;;;;6.67;6.00;;;;;18.68;100.00;101041.81;6396153;22;45623;-89
2022/04/19 09:38:33;;;;;;;;;7.00;6.67;;;;;18.83;100.00;101035.84;6394251;22;45398;-89
2022/04/19 09:40:59;;;;;;;;;8.67;7.00;;;;;19.05;100.00;101037.91;6333114;22;45666;-90
2022/04/19 09:43:24;;;;;;;;;11.33;8.00;;;;;19.27;100.00;101033.84;6362520;22;45356;-89
2022/04/19 09:45:54;;;;;;;;;6.00;5.00;;;;;19.51;100.00;101040.34;6363606;22;45328;-90
2022/04/19 09:48:24;;;;;;;;;9.33;7.33;;;;;19.77;100.00;101050.44;6334583;22;47159;-89
2022/04/19 09:50:51;;;;;;;;;9.00;7.33;;;;;20.01;100.00;101053.34;6363304;22;45221;-89
2022/04/19 09:53:21;;;;;;;;;11.67;9.00;;;;;20.24;100.00;101043.84;6333583;22;45759;-89
2022/04/19 09:55:51;;;;;;;;;9.00;7.00;;;;;20.46;100.00;101039.59;6364000;22;45513;-88
2022/04/19 09:58:18;;;;;;;;;7.00;6.67;;;;;20.63;100.00;101029.09;6335416;22;46434;-89
2022/04/19 10:00:45;;;;;;;;;10.33;7.33;;;;;20.88;100.00;101047.03;6334104;22;45573;-88
2022/04/19 10:08:54;;;;;;;;;9.00;9.00;;;;;21.30;100.00;101030.44;6263917;22;45422;-87
2022/04/19 10:11:20;;;;;;;;;6.00;6.00;;;;;21.34;100.00;101028.69;6264329;22;45385;-88
2022/04/19 10:13:46;;;;;;;;;11.67;9.67;;;;;21.37;100.00;101026.00;6264982;22;45398;-88
2022/04/19 10:16:14;;;;;;;;;9.33;8.00;;;;;21.36;100.00;101025.13;6265727;22;45415;-88
2022/04/19 10:18:40;;;;;;;;;7.67;7.00;;;;;21.33;100.00;101027.78;6264826;22;45975;-92
2022/04/19 10:21:08;;;;;;;;;14.67;8.67;;;;;21.39;100.00;101029.59;6264612;22;45442;-89
2022/04/19 10:23:39;;;;;;;;;8.67;8.67;;;;;21.47;100.00;101019.81;6267789;22;45445;-95
2022/04/19 10:26:23;;;;;;;;;8.00;8.00;;;;;21.60;100.00;101023.44;6269548;22;45361;-93
2022/04/19 10:28:54;;;;;;;;;9.00;7.00;;;;;21.73;100.00;101029.69;6240884;22;47511;-91
2022/04/19 10:31:35;;;;;;;;;15.00;13.33;;;;;21.84;100.00;101028.84;6237333;22;45835;-91
2022/04/19 10:34:02;;;;;;;;;8.00;7.33;;;;;21.91;100.00;101019.97;6268304;22;45746;-96
2022/04/19 10:36:39;;;;;;;;;10.67;8.00;;;;;22.06;100.00;101020.94;6267593;22;45580;-90
2022/04/19 10:39:14;;;;;;;;;13.00;10.67;;;;;22.21;100.00;101020.91;6276399;22;46324;-91
2022/04/19 10:41:59;;;;;;;;;12.00;9.00;;;;;22.37;100.00;101023.59;6316152;22;45330;-93
2022/04/19 10:44:36;;;;;;;;;11.00;9.33;;;;;22.62;100.00;101012.03;6355849;22;44796;-90
2022/04/19 10:47:16;;;;;;;;;13.00;8.67;;;;;23.02;100.00;101008.41;6390385;22;45244;-91
2022/04/19 10:49:59;;;;;;;;;10.33;9.67;;;;;23.46;100.00;101010.03;6375611;22;47240;-91
2022/04/19 10:52:37;;;;;;;;;13.67;9.67;;;;;23.89;100.00;101017.00;6364638;22;45359;-92
2022/04/19 10:55:06;;;;;;;;;10.67;9.00;;;;;24.75;100.00;101013.69;6361579;22;45700;-87
2022/04/19 11:00:53;;;;;;;;;7.67;6.00;;;;;28.80;100.00;101015.47;6362467;22;45306;-89
2022/04/19 11:03:29;;;;;;;;;8.67;7.00;;;;;30.33;99.64;101019.03;6360829;22;45373;-90
2022/04/19 11:05:59;;;;;;;;;7.00;6.33;;;;;31.23;96.41;101022.22;6363369;22;45139;-88
2022/04/19 11:08:24;;;;;;;;;10.00;9.00;;;;;32.24;92.41;101023.78;6362234;22;45596;-87
2022/04/19 11:10:51;;;;;;;;;13.67;10.00;;;;;33.83;90.29;101025.84;6361940;22;45377;-89
2022/04/19 11:13:19;;;;;;;;;9.67;8.00;;;;;35.61;87.47;101020.28;6363474;22;45325;-89
2022/04/19 11:16:05;;;;;;;;;9.00;7.00;;;;;37.22;83.37;101030.84;6362017;22;45500;-89
2022/04/19 11:18:34;;;;;;;;;12.00;10.00;;;;;38.05;78.38;101031.03;6350190;22;45407;-89
2022/04/19 11:21:03;;;;;;;;;11.00;8.00;;;;;38.76;75.42;101032.59;6359289;22;46903;-89
2022/04/19 11:23:40;;;;;;;;;8.00;8.00;;;;;39.33;70.10;101040.53;6359454;22;45451;-92
2022/04/19 11:26:08;;;;;;;;;9.00;6.33;;;;;40.06;69.15;101032.50;6360946;22;45249;-88
2022/04/19 11:28:33;;;;;;;;;6.00;6.00;;;;;40.63;67.12;101032.72;6363644;22;45260;-89
2022/04/19 11:30:59;;;;;;;;;7.33;7.33;;;;;40.98;64.61;101035.50;6359081;22;45767;-90
2022/04/19 11:33:31;;;;;;;;;8.33;8.00;;;;;41.30;64.19;101031.16;6360267;22;45362;-92
2022/04/19 11:36:02;;;;;;;;;8.67;7.67;;;;;41.44;61.95;101041.91;6364123;22;45451;-89
2022/04/19 11:38:32;;;;;;;;;5.67;5.00;;;;;41.42;60.39;101038.41;6358900;22;45406;-90
2022/04/19 11:46:45;;;;;;;;;9.33;6.33;;;;;39.77;56.97;101028.19;6396793;22;45319;-90
2022/04/19 11:49:23;;;;;;;;;8.00;7.33;;;;;39.96;57.01;101041.44;6366617;22;45727;-91
2022/04/19 11:52:00;;;;;;;;;10.00;9.00;;;;;39.38;55.92;101040.16;6394623;22;46315;-91
2022/04/19 11:54:28;;;;;;;;;8.00;8.00;;;;;39.29;56.25;101038.09;6365761;22;45324;-91
2022/04/19 11:56:55;;;;;;;;;7.67;7.67;;;;;38.82;55.89;101035.88;6397089;22;45476;-91
2022/04/19 11:59:26;;;;;;;;;14.00;11.00;;;;;37.54;55.56;101030.66;6396800;22;45242;-92
2022/04/19 12:01:52;;;;;;;;;9.33;5.67;;;;;37.12;56.57;101036.03;6395911;22;45384;-90
2022/04/19 12:04:18;;;;;;;;;7.67;6.67;;;;;36.17;55.86;101040.78;6395923;22;45379;-89
2022/04/19 12:07:03;;;;;;;;;11.67;10.67;;;;;34.63;57.27;101038.22;6367178;22;45459;-90
2022/04/19 12:09:32;;;;;;;;;7.33;7.33;;;;;33.22;57.25;101040.41;6395347;22;45615;-91
2022/04/19 12:11:58;;;;;;;;;5.67;5.67;;;;;32.11;58.31;101031.59;6396955;22;45284;-90
2022/04/19 12:14:31;;;;;;;;;9.00;7.00;;;;;31.40;59.44;101031.56;6367813;22;45699;-90
2022/04/19 12:17:04;;;;;;;;;3.00;3.00;;;;;30.62;60.50;101021.69;6396571;22;45200;-90
2022/04/19 12:19:38;;;;;;;;;7.33;7.00;;;;;29.85;60.76;101032.28;6366974;22;45373;-89
2022/04/19 12:22:14;;;;;;;;;6.33;4.00;;;;;29.28;61.52;101022.25;6367274;22;46123;-88
2022/04/19 12:24:44;;;;;;;;;7.00;4.00;;;;;29.07;62.69;101031.84;6396233;22;45315;-90
2022/04/19 12:27:09;;;;;;;;;6.67;3.67;;;;;28.62;62.46;101021.34;6395850;22;45154;-88
2022/04/19 12:29:36;;;;;;;;;6.00;5.00;;;;;28.00;63.10;101029.13;6367513;22;45408;-88
2022/04/19 12:32:04;;;;;;;;;3.33;2.33;;;;;27.32;63.63;101032.34;6396416;22;46694;-89
2022/04/19 12:34:37;;;;;;;;;5.00;5.00;;;;;26.84;64.57;101023.38;6367561;22;45518;-87
2022/04/19 12:37:13;;;;;;;;;10.00;8.00;;;;;26.34;64.90;101019.72;6367706;22;45408;-88
2022/04/19 12:39:40;;;;;;;;;5.00;4.00;;;;;26.13;66.93;101010.22;6366291;22;45494;-87
2022/04/19 12:42:11;;;;;;;;;6.33;5.67;;;;;26.87;66.49;101017.94;6396013;22;45259;-88
2022/04/19 12:44:38;;;;;;;;;10.00;6.67;;;;;27.26;67.19;101010.94;6367529;22;45344;-87
2022/04/19 12:47:18;;;;;;;;;5.67;5.00;;;;;29.06;67.33;101005.75;6395836;22;45290;-89
2022/04/19 12:49:46;;;;;;;;;5.67;5.67;;;;;30.90;66.80;101007.16;6366501;22;45516;-89
2022/04/19 12:52:13;;;;;;;;;5.67;4.00;;;;;33.93;67.31;101001.75;6394593;22;47499;-89
2022/04/19 12:54:43;;;;;;;;;3.00;3.00;;;;;37.21;66.33;101004.50;6367540;22;45380;-89
2022/04/19 12:57:12;;;;;;;;;2.33;2.00;;;;;40.13;62.70;101005.44;6396034;22;45256;-87
2022/04/19 12:59:38;;;;;;;;;5.33;5.33;;;;;42.54;58.93;101008.00;6395766;22;45396;-87
2022/04/19 13:02:04;;;;;;;;;3.33;3.33;;;;;44.60;55.99;101007.84;6395517;22;45313;-88
2022/04/19 13:04:29;;;;;;;;;2.33;2.00;;;;;46.25;54.88;101008.22;6396298;22;45385;-89
2022/04/19 13:12:26;;;;;;;;;3.67;2.00;;;;;47.70;48.85;101002.13;6395719;22;45780;-90
2022/04/19 13:14:54;;;;;;;;;2.33;1.33;;;;;48.73;46.29;100992.53;6396258;22;45278;-89
2022/04/19 13:17:21;;;;;;;;;2.00;2.00;;;;;49.39;44.66;101002.53;6366488;22;45990;-90
2022/04/19 13:19:46;;;;;;;;;3.00;2.67;;;;;49.55;43.81;100991.44;6394736;22;45513;-90
2022/04/19 13:22:13;;;;;;;;;4.00;3.00;;;;;49.61;42.61;100994.34;6395221;22;45474;-91
2022/04/19 13:24:39;;;;;;;;;1.67;1.33;;;;;49.07;41.29;100994.13;6367225;22;45206;-90
2022/04/19 13:27:06;;;;;;;;;2.67;1.33;;;;;47.63;40.62;100988.03;6367903;22;45320;-90
2022/04/19 13:29:32;;;;;;;;;3.67;2.00;;;;;45.69;41.10;100979.63;6395853;22;45476;-91
2022/04/19 13:31:57;;;;;;;;;2.00;2.00;;;;;44.43;41.41;100985.47;6395275;22;45444;-91
2022/04/19 13:34:23;;;;;;;;;2.00;2.00;;;;;43.55;42.45;100979.78;6395547;22;45247;-90
2022/04/19 13:36:49;;;;;;;;;2.00;2.00;;;;;43.00;42.20;100968.13;6366883;22;45267;-90
2022/04/19 13:39:15;;;;;;;;;3.00;2.00;;;;;42.84;42.68;100974.13;6395165;22;45306;-91
2022/04/19 13:41:43;;;;;;;;;2.67;2.00;;;;;42.81;42.68;100958.72;6396435;22;45417;-90
2022/04/19 13:44:10;;;;;;;;;1.67;1.67;;;;;43.10;42.85;100955.25;6396073;22;45309;-90
2022/04/19 13:46:38;;;;;;;;;1.33;1.00;;;;;43.40;42.44;100952.56;6367250;22;45270;-91
2022/04/19 13:49:03;;;;;;;;;4.00;1.67;;;;;44.13;43.11;100965.22;6366811;22;45686;-91
2022/04/19 13:51:29;;;;;;;;;3.00;3.00;;;;;45.18;43.10;100952.41;6395606;22;45805;-93
2022/04/19 13:53:54;;;;;;;;;3.00;3.00;;;;;46.45;42.40;100952.50;6395252;22;45626;-91
2022/04/19 13:56:19;;;;;;;;;3.33;2.00;;;;;47.80;41.16;100943.63;6395932;22;55739;-93